KREG

Louisiana Regional Airport

Gonzales, Louisiana, USA
METAR KREG 231035Z AUTO 00000KT 5SM BR CLR 21/20 A3001 RMK AO2 T02050203 TSNO
Observed Flight Rules
May-23 @ 10:35 UTC (36 minutes ago) Marginal Visual Flight Rules
Visibility Clouds Conditions
5 miles
  • Clear skies
  • Mist
Temperatures Readings
Current 21°C / 70°F
Dewpoint 20°C / 68°F
Humidity 94%
Altimeter 30.01" Hg
Pressure 1016 hPa
Elevation 4
METAR KREG 231035Z AUTO 00000KT 5SM BR CLR 21/20 A3001 RMK AO2 T02050203 TSNO
Observed Flight Rules
May-23 @ 10:35 UTC
(36 minutes ago)
MVFR
Clouds
  • Clear skies
Conditions
  • Mist
Temperature Dewpoint
21°C / 70°F 20°C / 68°F
Humidity Altimeter Pressure
94% 30.01" Hg 1016 hPa